Time;durP1;ratioP1;P1;durP2;ratioP2;P2;SDS_P1;SDS_P2;PMS_P1;PMS_P2;Temp;Humidity;BMP_temperature;BMP_pressure;BME280_temperature;BME280_humidity;BME280_pressure;Samples;Min_cycle;Max_cycle;Signal;HPM_P1;HPM_P2
2021/10/09 00:02:00;;;;;;;15.68;12.20;;;12.40;90.60;;;;;;5025490;28;20065;-64
2021/10/09 00:04:26;;;;;;;15.63;13.00;;;12.40;90.70;;;;;;5018207;28;20052;-64
2021/10/09 00:06:52;;;;;;;18.23;13.93;;;12.40;90.80;;;;;;5030859;28;20040;-64
2021/10/09 00:09:17;;;;;;;17.10;12.40;;;12.40;90.90;;;;;;5016260;28;20038;-64
2021/10/09 00:11:43;;;;;;;16.58;13.25;;;12.30;90.90;;;;;;5026416;28;20452;-64
2021/10/09 00:14:11;;;;;;;17.25;13.40;;;12.30;91.00;;;;;;5018087;28;20088;-64
2021/10/09 00:16:39;;;;;;;19.90;14.25;;;12.30;91.10;;;;;;5019386;28;20381;-64
2021/10/09 00:19:05;;;;;;;15.80;12.77;;;12.20;91.20;;;;;;5030572;28;20045;-64
2021/10/09 00:21:30;;;;;;;15.57;12.93;;;12.10;91.30;;;;;;5015142;28;20068;-64
2021/10/09 00:23:57;;;;;;;15.98;13.07;;;12.10;91.40;;;;;;5020628;28;20082;-64
2021/10/09 00:26:24;;;;;;;17.27;14.23;;;12.10;91.50;;;;;;5016763;28;20092;-64
2021/10/09 00:28:50;;;;;;;17.48;13.13;;;12.10;91.60;;;;;;5012916;28;20109;-64
2021/10/09 00:31:15;;;;;;;15.05;11.68;;;12.10;91.70;;;;;;5025217;28;20104;-64
2021/10/09 00:33:41;;;;;;;14.65;11.75;;;12.00;91.70;;;;;;5011346;28;20496;-64
2021/10/09 00:36:06;;;;;;;15.75;11.73;;;12.00;91.80;;;;;;5024012;28;20037;-64
2021/10/09 00:38:32;;;;;;;13.65;10.77;;;12.00;91.80;;;;;;5028796;28;20028;-64
2021/10/09 00:40:57;;;;;;;14.82;10.98;;;12.00;91.90;;;;;;5012699;28;20022;-64
2021/10/09 00:43:23;;;;;;;17.70;11.98;;;12.00;91.90;;;;;;5024701;28;20025;-64
2021/10/09 00:45:54;;;;;;;15.50;11.95;;;12.00;92.00;;;;;;5026389;28;20152;-63
2021/10/09 00:48:20;;;;;;;16.80;12.68;;;12.00;92.00;;;;;;5012164;28;20041;-64
2021/10/09 00:50:46;;;;;;;15.95;12.52;;;12.00;92.00;;;;;;5026199;28;20025;-64
2021/10/09 00:53:13;;;;;;;17.05;11.85;;;12.00;92.10;;;;;;5022333;28;20516;-64
2021/10/09 00:55:39;;;;;;;15.82;12.65;;;11.90;92.10;;;;;;5017365;28;20085;-64
2021/10/09 00:58:06;;;;;;;16.67;13.18;;;11.90;92.10;;;;;;5018028;28;20021;-64
2021/10/09 01:00:31;;;;;;;17.05;13.07;;;11.90;92.20;;;;;;5019382;28;20050;-64
2021/10/09 01:02:57;;;;;;;15.68;12.52;;;11.90;92.30;;;;;;5011755;28;20054;-64
2021/10/09 01:05:23;;;;;;;16.70;12.55;;;11.90;92.30;;;;;;5012607;28;20466;-64
2021/10/09 01:07:49;;;;;;;17.50;12.20;;;11.80;92.40;;;;;;5026253;28;20521;-64
2021/10/09 01:10:15;;;;;;;16.50;12.27;;;11.80;92.40;;;;;;5013917;28;20143;-64
2021/10/09 01:12:40;;;;;;;16.40;12.13;;;11.80;92.50;;;;;;5015314;28;20481;-64
2021/10/09 01:15:20;;;;;;;15.40;12.25;;;11.80;92.50;;;;;;5029710;28;20018;-64
2021/10/09 01:17:45;;;;;;;;;;;11.80;92.50;;;;;;5035337;28;20026;-64
2021/10/09 01:20:12;;;;;;;17.98;13.85;;;11.70;92.50;;;;;;5034903;28;19912;-64
2021/10/09 01:22:38;;;;;;;19.58;14.15;;;11.70;92.70;;;;;;5036078;28;20064;-64
2021/10/09 01:25:08;;;;;;;17.50;13.60;;;11.60;92.70;;;;;;5036162;28;20060;-64
2021/10/09 01:27:34;;;;;;;15.88;12.38;;;11.70;92.80;;;;;;5036171;28;20022;-64
2021/10/09 01:30:01;;;;;;;16.88;12.60;;;11.60;92.80;;;;;;5035891;28;20033;-64
2021/10/09 01:32:26;;;;;;;16.23;12.35;;;11.60;92.80;;;;;;5034672;28;20041;-64
2021/10/09 01:34:52;;;;;;;16.42;12.43;;;11.60;92.90;;;;;;5034457;28;20025;-64
2021/10/09 01:37:17;;;;;;;15.02;11.85;;;11.50;92.90;;;;;;5035866;28;20412;-64
2021/10/09 01:39:48;;;;;;;16.98;12.73;;;11.60;93.00;;;;;;5035910;28;20032;-64
2021/10/09 01:42:14;;;;;;;14.70;11.75;;;11.60;93.00;;;;;;5035650;28;20026;-64
2021/10/09 01:44:39;;;;;;;15.98;13.43;;;11.50;93.00;;;;;;5035575;28;20029;-64
2021/10/09 01:47:05;;;;;;;16.02;12.73;;;11.50;93.00;;;;;;5035703;28;20025;-64
2021/10/09 01:49:31;;;;;;;16.27;13.07;;;11.50;93.10;;;;;;5035410;28;20053;-63
2021/10/09 01:51:57;;;;;;;13.98;11.25;;;11.50;93.20;;;;;;5035507;28;20025;-63
2021/10/09 01:54:22;;;;;;;18.55;13.18;;;11.50;93.20;;;;;;5035291;28;20025;-64
2021/10/09 01:56:49;;;;;;;15.48;12.15;;;11.50;93.20;;;;;;5035572;28;20021;-64
2021/10/09 01:59:15;;;;;;;15.95;12.52;;;11.40;93.30;;;;;;5035307;28;20023;-64
2021/10/09 02:01:40;;;;;;;18.08;13.43;;;11.40;93.30;;;;;;5034174;28;20032;-64
2021/10/09 02:04:06;;;;;;;16.90;13.80;;;11.40;93.40;;;;;;5035156;28;20362;-63
2021/10/09 02:06:31;;;;;;;16.48;12.00;;;11.40;93.40;;;;;;5034088;28;20026;-64
2021/10/09 02:08:57;;;;;;;17.85;13.75;;;11.30;93.50;;;;;;5034005;28;20040;-64
2021/10/09 02:11:26;;;;;;;17.45;13.05;;;11.30;93.50;;;;;;5033895;28;20084;-64
2021/10/09 02:14:01;;;;;;;15.68;12.20;;;11.30;93.60;;;;;;5035015;28;20029;-64
2021/10/09 02:24:52;;;;;;;19.70;14.80;;;11.20;94.00;;;;;;5034922;28;20028;-64
2021/10/09 02:27:18;;;;;;;18.85;14.55;;;11.20;93.70;;;;;;5033825;28;20451;-64
2021/10/09 02:29:43;;;;;;;21.45;15.30;;;11.20;93.80;;;;;;5034970;28;20100;-64
2021/10/09 02:32:09;;;;;;;20.63;15.90;;;11.10;93.80;;;;;;5034743;28;20382;-64
2021/10/09 02:34:35;;;;;;;18.88;14.70;;;11.10;93.90;;;;;;5034471;28;20021;-64
2021/10/09 02:37:00;;;;;;;18.67;13.93;;;11.10;93.90;;;;;;5034784;28;20027;-64
2021/10/09 02:39:26;;;;;;;17.98;13.43;;;11.10;94.00;;;;;;5033445;28;20109;-64
2021/10/09 02:41:52;;;;;;;23.02;16.48;;;11.10;94.00;;;;;;5034652;28;20018;-63
2021/10/09 02:44:18;;;;;;;20.42;14.85;;;11.10;94.10;;;;;;5034632;28;20033;-64
2021/10/09 02:46:44;;;;;;;19.75;14.85;;;11.10;94.10;;;;;;5034660;28;20032;-63
2021/10/09 02:49:09;;;;;;;23.23;17.02;;;11.10;94.20;;;;;;5034220;28;20049;-64
2021/10/09 02:51:35;;;;;;;22.88;17.65;;;11.00;94.30;;;;;;5033040;28;20025;-64
2021/10/09 02:54:00;;;;;;;20.98;16.35;;;11.00;94.40;;;;;;5034213;28;20465;-64
2021/10/09 02:56:26;;;;;;;19.55;14.65;;;11.00;94.40;;;;;;5034441;28;20529;-63
2021/10/09 02:58:52;;;;;;;25.15;17.70;;;11.00;94.50;;;;;;5033110;28;20032;-64
2021/10/09 03:01:17;;;;;;;23.33;16.63;;;10.90;94.60;;;;;;5034228;28;20030;-64
2021/10/09 03:03:43;;;;;;;21.38;17.10;;;11.00;94.60;;;;;;5034083;28;20100;-64
2021/10/09 03:06:08;;;;;;;23.92;17.30;;;10.90;94.70;;;;;;5033993;28;20135;-63
2021/10/09 03:08:34;;;;;;;23.73;17.58;;;10.90;94.80;;;;;;5034263;28;20025;-64
2021/10/09 03:10:59;;;;;;;23.00;17.40;;;10.90;94.80;;;;;;5034227;28;20026;-64
2021/10/09 03:13:25;;;;;;;22.48;15.60;;;10.90;94.90;;;;;;5032712;28;20029;-64
2021/10/09 03:15:50;;;;;;;19.65;15.48;;;10.80;94.90;;;;;;5034045;28;20029;-63
2021/10/09 03:18:16;;;;;;;22.48;16.27;;;10.80;95.00;;;;;;5033838;28;20476;-63
2021/10/09 03:20:41;;;;;;;20.25;14.77;;;10.80;95.00;;;;;;5033809;28;20104;-63
2021/10/09 03:23:07;;;;;;;20.85;15.05;;;10.80;95.00;;;;;;5033782;28;20033;-63
2021/10/09 03:25:32;;;;;;;20.20;14.90;;;10.80;95.10;;;;;;5033902;28;20053;-64
2021/10/09 03:27:58;;;;;;;20.55;15.00;;;10.80;95.10;;;;;;5033716;28;20032;-64
2021/10/09 03:30:23;;;;;;;17.85;14.50;;;10.80;95.10;;;;;;5032461;28;20029;-64
2021/10/09 03:32:49;;;;;;;18.33;13.80;;;10.70;95.20;;;;;;5032211;28;20040;-64
2021/10/09 03:35:15;;;;;;;18.55;13.95;;;10.70;95.20;;;;;;5033596;28;20393;-64
2021/10/09 03:37:41;;;;;;;20.63;16.05;;;10.70;95.20;;;;;;5033089;28;20022;-63
2021/10/09 03:40:10;;;;;;;20.65;15.55;;;10.70;95.20;;;;;;5033619;28;20028;-64
2021/10/09 03:42:44;;;;;;;17.47;13.93;;;10.70;95.30;;;;;;5033506;28;20030;-63
2021/10/09 03:52:58;;;;;;;20.65;15.23;;;10.60;95.40;;;;;;5033013;28;20029;-63
2021/10/09 03:55:24;;;;;;;20.15;15.68;;;10.50;95.40;;;;;;5033231;28;20045;-63
2021/10/09 03:57:49;;;;;;;20.83;15.13;;;10.50;95.50;;;;;;5031976;28;20021;-63
2021/10/09 04:00:20;;;;;;;19.52;14.80;;;10.50;95.50;;;;;;5033072;28;20030;-63
2021/10/09 04:02:46;;;;;;;16.88;13.50;;;10.50;95.50;;;;;;5033073;28;20130;-63
2021/10/09 04:05:12;;;;;;;16.73;12.85;;;10.50;95.60;;;;;;5033020;28;20370;-63
2021/10/09 04:07:39;;;;;;;17.52;12.55;;;10.50;95.60;;;;;;5032910;28;20030;-63
2021/10/09 04:10:05;;;;;;;16.52;12.60;;;10.50;95.60;;;;;;5033116;28;20159;-63
2021/10/09 04:12:31;;;;;;;17.00;12.98;;;10.50;95.60;;;;;;5032990;28;20032;-63
2021/10/09 04:14:56;;;;;;;22.70;17.02;;;10.40;95.60;;;;;;5032916;28;20474;-63
2021/10/09 04:17:22;;;;;;;23.15;18.33;;;10.40;95.70;;;;;;5031739;28;20492;-64
2021/10/09 04:19:47;;;;;;;24.98;19.02;;;10.40;95.80;;;;;;5032807;28;20025;-63
2021/10/09 04:22:13;;;;;;;23.88;18.85;;;10.30;95.90;;;;;;5032778;28;20037;-63
2021/10/09 04:24:39;;;;;;;23.10;17.27;;;10.30;96.00;;;;;;5032768;28;20021;-63
2021/10/09 04:27:05;;;;;;;22.10;15.93;;;10.30;96.00;;;;;;5032451;28;20033;-63
2021/10/09 04:29:30;;;;;;;20.38;14.93;;;10.30;96.10;;;;;;5032940;28;20060;-63
2021/10/09 04:31:56;;;;;;;19.92;14.10;;;10.20;96.10;;;;;;5032874;28;20030;-63
2021/10/09 04:34:22;;;;;;;18.15;13.68;;;10.30;96.10;;;;;;5032163;28;20029;-63
2021/10/09 04:36:47;;;;;;;19.80;13.70;;;10.20;96.10;;;;;;5032137;28;20038;-63
2021/10/09 04:39:13;;;;;;;20.13;14.98;;;10.20;96.10;;;;;;5031876;28;20029;-63
2021/10/09 04:41:39;;;;;;;20.92;14.48;;;10.10;96.10;;;;;;5031309;28;20029;-63
2021/10/09 04:44:06;;;;;;;20.45;14.95;;;10.20;96.20;;;;;;5032638;28;20509;-63
2021/10/09 04:46:32;;;;;;;18.65;14.85;;;10.10;96.20;;;;;;5032510;28;20026;-63
2021/10/09 04:48:57;;;;;;;18.55;14.05;;;10.10;96.20;;;;;;5032500;28;20103;-63
2021/10/09 04:51:24;;;;;;;19.83;15.18;;;10.10;96.20;;;;;;5036722;28;20108;-63
2021/10/09 04:53:49;;;;;;;20.35;15.57;;;10.10;96.20;;;;;;5035209;28;20025;-63
2021/10/09 04:56:15;;;;;;;22.13;14.60;;;10.00;96.20;;;;;;5036474;28;20439;-63
2021/10/09 04:58:40;;;;;;;14.27;12.10;;;10.00;96.30;;;;;;5036529;28;20076;-63
2021/10/09 05:01:06;;;;;;;18.77;13.25;;;10.00;96.30;;;;;;5036503;28;20026;-63
2021/10/09 05:03:31;;;;;;;15.98;12.30;;;9.90;96.30;;;;;;5035281;28;20185;-63
2021/10/09 05:05:57;;;;;;;19.02;12.60;;;9.90;96.30;;;;;;5036457;28;20065;-64
2021/10/09 05:08:23;;;;;;;15.90;12.00;;;9.90;96.40;;;;;;5035049;28;20071;-63
2021/10/09 05:10:48;;;;;;;18.33;11.90;;;9.90;96.40;;;;;;5036271;28;20057;-63
2021/10/09 05:13:14;;;;;;;13.80;10.60;;;9.80;96.40;;;;;;5036145;28;20033;-63
2021/10/09 05:15:44;;;;;;;16.10;12.18;;;9.80;96.40;;;;;;5036299;28;20102;-63
2021/10/09 05:18:11;;;;;;;17.67;12.23;;;9.80;96.40;;;;;;5036490;28;20017;-63
2021/10/09 05:20:37;;;;;;;15.48;11.80;;;9.80;96.40;;;;;;5036290;28;20017;-63
2021/10/09 05:23:03;;;;;;;18.42;13.65;;;9.70;96.40;;;;;;5035930;28;20167;-63
2021/10/09 05:25:31;;;;;;;16.63;13.32;;;9.70;96.40;;;;;;5036008;28;20100;-64
2021/10/09 05:28:02;;;;;;;16.52;12.70;;;9.70;96.50;;;;;;5035179;28;20469;-63
2021/10/09 05:30:32;;;;;;;18.35;12.60;;;9.70;96.40;;;;;;5035841;28;20033;-63
2021/10/09 05:33:15;;;;;;;;;;;9.70;96.50;;;;;;5034376;28;20045;-63
2021/10/09 05:35:40;;;;;;;17.00;12.23;;;9.60;96.40;;;;;;5034923;28;20471;-63
2021/10/09 05:38:06;;;;;;;16.40;11.73;;;9.50;96.60;;;;;;5035511;28;20112;-63
2021/10/09 05:40:32;;;;;;;16.42;11.75;;;9.50;96.60;;;;;;5035748;28;20022;-63
2021/10/09 05:42:57;;;;;;;20.10;13.95;;;9.60;96.60;;;;;;5035642;28;20029;-63
2021/10/09 05:45:23;;;;;;;18.88;13.90;;;9.50;96.50;;;;;;5034482;28;20482;-63
2021/10/09 05:48:01;;;;;;;20.52;14.60;;;9.50;96.50;;;;;;5035145;28;20053;-63
2021/10/09 05:50:43;;;;;;;18.20;13.32;;;9.50;96.60;;;;;;5034295;28;20030;-63
2021/10/09 05:55:59;;;;;;;19.63;14.60;;;9.50;96.70;;;;;;5034617;28;20428;-63
2021/10/09 06:01:17;;;;;;;20.00;13.93;;;9.40;96.70;;;;;;5034120;28;20025;-63
2021/10/09 06:31:17;;;;;;;19.48;14.05;;;9.20;97.30;;;;;;5030221;28;20044;-63
2021/10/09 06:37:39;;;;;;;18.05;12.23;;;9.20;97.30;;;;;;5032108;28;20386;-63
2021/10/09 06:45:54;;;;;;;29.00;18.73;;;9.40;97.30;;;;;;5031198;28;20405;-63
2021/10/09 06:48:45;;;;;;;28.23;17.43;;;9.40;97.40;;;;;;4994565;28;1066115;-63
2021/10/09 06:59:26;;;;;;;24.95;17.90;;;9.40;97.40;;;;;;5015287;28;20075;-62
2021/10/09 06:59:40;;;;;;;27.92;20.25;;;9.50;97.60;;;;;;5034652;28;20052;-63
2021/10/09 07:02:05;;;;;;;30.23;21.83;;;9.50;97.60;;;;;;5032122;28;20025;-63
2021/10/09 07:04:31;;;;;;;34.58;23.05;;;9.60;97.70;;;;;;5028870;28;20564;-64
2021/10/09 07:06:58;;;;;;;36.35;26.98;;;9.60;97.80;;;;;;5029980;28;20026;-63
2021/10/09 07:09:24;;;;;;;37.15;26.83;;;9.60;98.00;;;;;;5026860;28;20036;-63
2021/10/09 07:11:49;;;;;;;34.83;24.45;;;9.70;98.20;;;;;;5023612;28;20021;-63
2021/10/09 07:14:15;;;;;;;37.00;27.30;;;9.70;98.30;;;;;;5031902;28;20026;-63
2021/10/09 07:16:40;;;;;;;35.63;25.52;;;9.70;98.50;;;;;;5029537;28;20025;-63
2021/10/09 07:19:06;;;;;;;38.03;27.40;;;9.80;98.60;;;;;;5028711;28;20056;-63
2021/10/09 07:21:31;;;;;;;35.83;25.50;;;9.80;98.70;;;;;;5026569;28;20034;-63
2021/10/09 07:23:57;;;;;;;38.13;26.30;;;9.90;98.80;;;;;;5031976;28;20017;-63
2021/10/09 07:26:22;;;;;;;39.92;28.13;;;9.90;98.90;;;;;;5029162;28;20393;-63
2021/10/09 07:28:49;;;;;;;41.17;29.40;;;10.00;99.10;;;;;;5025754;28;20428;-63
2021/10/09 07:31:16;;;;;;;40.28;27.98;;;10.00;99.20;;;;;;5031375;28;20017;-63
2021/10/09 07:33:41;;;;;;;35.58;26.13;;;10.10;99.40;;;;;;5028215;28;20028;-63
2021/10/09 07:36:07;;;;;;;36.60;26.35;;;10.10;99.40;;;;;;5028358;28;20397;-63
2021/10/09 07:38:32;;;;;;;41.20;28.70;;;10.20;99.50;;;;;;5028299;28;20018;-63
2021/10/09 07:44:09;;;;;;;45.20;30.67;;;10.30;99.70;;;;;;5025378;28;20029;-63
2021/10/09 07:46:35;;;;;;;41.97;29.90;;;10.40;99.80;;;;;;5028987;28;20049;-63
2021/10/09 07:49:00;;;;;;;44.25;31.45;;;10.40;99.90;;;;;;5028306;28;20124;-64
2021/10/09 07:51:26;;;;;;;42.33;30.23;;;10.50;99.90;;;;;;5024852;28;20557;-63
2021/10/09 07:53:51;;;;;;;39.90;28.67;;;10.50;99.90;;;;;;5044473;28;20033;-63
2021/10/09 07:56:17;;;;;;;43.20;30.95;;;10.50;99.90;;;;;;5043513;28;20021;-63
2021/10/09 07:58:42;;;;;;;41.42;29.60;;;10.60;99.90;;;;;;5029530;28;20021;-63
2021/10/09 08:01:08;;;;;;;40.58;29.10;;;10.60;99.90;;;;;;5033112;28;20056;-63
2021/10/09 08:03:34;;;;;;;42.97;30.02;;;10.70;99.90;;;;;;5032947;28;20030;-63
2021/10/09 08:06:00;;;;;;;47.33;32.35;;;10.80;99.90;;;;;;5032995;28;20355;-63
2021/10/09 08:08:25;;;;;;;41.28;30.38;;;10.90;99.90;;;;;;5024995;28;20025;-63
2021/10/09 08:11:09;;;;;;;;;;;;;;;;;;;;;
2021/10/09 08:16:32;;;;;;;44.25;32.50;;;11.10;99.90;;;;;;5033337;28;20076;-63
2021/10/09 08:18:59;;;;;;;43.28;31.90;;;11.10;99.90;;;;;;5032511;28;20440;-63
2021/10/09 08:21:27;;;;;;;41.83;31.38;;;11.10;99.90;;;;;;5032962;28;20056;-63
2021/10/09 08:40:10;;;;;;;49.03;32.90;;;11.40;99.90;;;;;;5032021;28;20048;-63
2021/10/09 08:42:36;;;;;;;44.20;32.42;;;11.50;99.80;;;;;;5032435;28;20044;-63
2021/10/09 08:45:03;;;;;;;40.55;30.85;;;11.60;99.70;;;;;;5028673;28;20047;-63
2021/10/09 08:47:33;;;;;;;41.58;30.42;;;11.70;99.60;;;;;;5021945;28;20037;-63
2021/10/09 08:49:58;;;;;;;49.35;34.75;;;11.70;99.40;;;;;;5028290;28;20112;-63
2021/10/09 08:52:24;;;;;;;43.53;31.85;;;11.90;99.20;;;;;;5029264;28;20121;-63
2021/10/09 08:54:50;;;;;;;39.75;31.13;;;11.90;99.10;;;;;;5023917;28;20028;-63
2021/10/09 08:57:22;;;;;;;52.85;35.08;;;12.00;98.90;;;;;;5024117;28;20466;-63
2021/10/09 09:00:04;;;;;;;45.08;33.22;;;12.10;98.80;;;;;;5029781;28;20049;-63
2021/10/09 09:02:34;;;;;;;43.40;32.80;;;12.20;98.70;;;;;;5027383;28;20049;-63
2021/10/09 09:05:28;;;;;;;41.88;31.30;;;12.40;98.60;;;;;;5027842;28;20028;-63
2021/10/09 09:40:16;;;;;;;35.33;27.70;;;13.70;95.90;;;;;;5033977;28;20030;-64
2021/10/09 09:42:46;;;;;;;33.17;25.67;;;13.80;95.80;;;;;;5028202;28;20030;-63
2021/10/09 09:45:13;;;;;;;;;;;14.00;95.60;;;;;;5031437;28;20064;-63
2021/10/09 09:47:41;;;;;;;34.15;26.70;;;14.10;95.40;;;;;;5022115;28;19913;-64
2021/10/09 09:50:09;;;;;;;33.60;26.52;;;14.20;95.20;;;;;;5031110;28;20025;-64
2021/10/09 09:52:36;;;;;;;32.50;24.50;;;14.40;94.90;;;;;;5027534;28;20017;-64
2021/10/09 09:55:03;;;;;;;28.65;21.70;;;14.50;94.70;;;;;;5030617;28;20067;-64
2021/10/09 09:57:30;;;;;;;31.23;24.15;;;14.70;94.60;;;;;;5030408;28;20485;-64
2021/10/09 09:59:57;;;;;;;30.17;24.88;;;14.90;94.10;;;;;;5033550;28;20025;-64
2021/10/09 10:02:26;;;;;;;25.05;21.45;;;15.10;93.80;;;;;;5030337;28;20456;-64
2021/10/09 10:04:52;;;;;;;26.58;21.35;;;15.30;93.70;;;;;;5030299;28;20029;-64
2021/10/09 10:07:18;;;;;;;26.50;21.27;;;15.60;93.30;;;;;;5026775;28;20101;-64
2021/10/09 10:09:48;;;;;;;23.90;19.65;;;15.90;93.20;;;;;;5023862;28;20450;-64
2021/10/09 10:12:13;;;;;;;23.15;18.30;;;16.30;92.80;;;;;;5029899;28;20067;-64
2021/10/09 10:14:42;;;;;;;18.80;15.82;;;16.60;92.70;;;;;;5025328;28;20049;-64
2021/10/09 10:17:08;;;;;;;19.83;16.25;;;17.20;93.60;;;;;;5034046;28;20022;-64
2021/10/09 10:19:49;;;;;;;16.88;14.10;;;18.90;92.60;;;;;;5021519;28;20048;-65
2021/10/09 10:22:15;;;;;;;17.15;13.25;;;22.00;88.70;;;;;;5021356;28;20057;-65
2021/10/09 10:24:47;;;;;;;13.20;11.73;;;24.70;79.40;;;;;;5019407;28;20028;-65
2021/10/09 10:27:44;;;;;;;13.65;12.25;;;27.30;71.40;;;;;;5025226;28;20017;-65
2021/10/09 10:30:16;;;;;;;11.63;10.32;;;29.90;62.90;;;;;;5030635;28;20083;-66
2021/10/09 10:33:17;;;;;;;;;;;;;;;;;;;;;
2021/10/09 10:35:43;;;;;;;9.80;8.90;;;34.10;53.60;;;;;;5024933;28;20385;-65
2021/10/09 10:41:48;;;;;;;9.43;8.52;;;37.40;48.50;;;;;;5024727;28;20021;-66
2021/10/09 10:44:52;;;;;;;9.23;8.30;;;38.60;46.30;;;;;;5028654;28;20340;-65
2021/10/09 10:47:37;;;;;;;10.93;9.82;;;39.80;44.40;;;;;;5023512;28;20017;-65
2021/10/09 10:50:10;;;;;;;9.05;8.25;;;40.80;41.30;;;;;;5030516;28;20064;-66
2021/10/09 10:52:49;;;;;;;9.27;8.48;;;41.20;40.30;;;;;;5029324;28;20044;-66
2021/10/09 10:55:15;;;;;;;9.85;8.75;;;42.10;39.50;;;;;;5026725;28;20470;-66
2021/10/09 10:58:20;;;;;;;9.00;8.20;;;42.50;38.20;;;;;;5031996;28;20018;-66
2021/10/09 11:01:26;;;;;;;9.40;8.30;;;43.30;37.80;;;;;;5031675;28;20033;-66
2021/10/09 11:03:56;;;;;;;8.82;7.95;;;44.10;37.30;;;;;;5029166;28;20036;-66
2021/10/09 11:06:24;;;;;;;9.10;8.40;;;44.90;36.90;;;;;;5017154;28;20022;-66
2021/10/09 11:08:52;;;;;;;11.40;8.75;;;45.40;35.50;;;;;;5027284;28;20469;-66
2021/10/09 11:11:32;;;;;;;9.27;8.38;;;46.00;35.10;;;;;;5022747;28;20496;-66
2021/10/09 11:13:57;;;;;;;9.70;8.23;;;46.40;34.40;;;;;;5028588;28;20095;-67
2021/10/09 11:16:30;;;;;;;7.80;7.00;;;47.00;34.00;;;;;;5026888;28;20470;-67
2021/10/09 11:18:55;;;;;;;8.20;7.50;;;47.30;33.60;;;;;;5026435;28;20482;-66
2021/10/09 11:21:22;;;;;;;8.13;7.43;;;47.70;33.30;;;;;;5031968;28;20022;-66
2021/10/09 11:23:49;;;;;;;8.70;7.97;;;48.10;32.90;;;;;;5027126;28;20105;-66
2021/10/09 11:26:14;;;;;;;8.95;8.13;;;48.30;32.30;;;;;;5031243;28;20101;-66
2021/10/09 11:29:28;;;;;;;9.15;8.23;;;48.50;31.80;;;;;;5029224;28;20104;-66
2021/10/09 11:32:10;;;;;;;9.60;8.70;;;48.70;31.00;;;;;;5028477;28;20378;-66
2021/10/09 11:37:48;;;;;;;9.60;8.65;;;48.90;30.00;;;;;;5024024;28;20022;-66
2021/10/09 11:40:14;;;;;;;8.65;7.75;;;49.00;30.40;;;;;;5022979;28;20029;-66
2021/10/09 11:42:54;;;;;;;9.77;8.80;;;49.30;29.70;;;;;;5027422;28;20029;-66
2021/10/09 11:45:37;;;;;;;9.52;8.73;;;49.00;29.40;;;;;;5028054;28;20303;-66
2021/10/09 11:53:59;;;;;;;9.98;9.18;;;47.90;29.20;;;;;;5029914;28;20532;-66
2021/10/09 11:56:25;;;;;;;;;;;47.70;29.30;;;;;;5028594;28;20026;-66
2021/10/09 11:58:57;;;;;;;8.90;8.13;;;47.60;29.90;;;;;;5023027;28;19905;-66
2021/10/09 12:01:40;;;;;;;9.02;8.32;;;47.50;29.60;;;;;;5026669;28;20068;-66
2021/10/09 12:04:20;;;;;;;9.57;8.88;;;47.50;29.60;;;;;;5023322;28;20516;-66
2021/10/09 12:06:59;;;;;;;10.43;9.48;;;47.30;29.40;;;;;;5029807;28;20029;-66
2021/10/09 12:09:58;;;;;;;9.80;8.98;;;46.60;29.30;;;;;;5030057;28;20033;-66
2021/10/09 12:12:32;;;;;;;9.77;8.98;;;46.60;29.70;;;;;;5025532;28;20013;-66
2021/10/09 12:14:59;;;;;;;11.43;10.30;;;46.30;29.50;;;;;;5028145;28;20021;-66
2021/10/09 12:17:38;;;;;;;10.40;9.27;;;45.90;29.30;;;;;;5025157;28;20353;-66
2021/10/09 12:20:10;;;;;;;9.52;8.73;;;45.80;29.70;;;;;;5032006;28;20385;-66
2021/10/09 12:22:41;;;;;;;10.63;9.23;;;45.60;29.70;;;;;;5026074;28;20367;-66
2021/10/09 12:25:18;;;;;;;10.85;9.95;;;45.40;29.80;;;;;;5031892;28;20021;-66
2021/10/09 12:27:44;;;;;;;8.88;8.18;;;45.60;29.80;;;;;;5032652;28;20055;-66
2021/10/09 12:30:16;;;;;;;9.52;8.73;;;45.80;29.90;;;;;;5020527;28;20026;-66
2021/10/09 12:32:44;;;;;;;9.82;8.85;;;45.90;29.80;;;;;;5012752;28;20105;-66
2021/10/09 12:35:27;;;;;;;8.73;8.10;;;46.00;29.90;;;;;;5012734;28;20092;-66
2021/10/09 12:41:16;;;;;;;10.38;9.48;;;46.00;29.80;;;;;;4993172;28;20397;-66
2021/10/09 12:43:43;;;;;;;9.55;8.75;;;45.10;29.50;;;;;;5013030;28;20030;-66
2021/10/09 12:46:27;;;;;;;10.13;9.23;;;45.00;29.90;;;;;;5012958;28;20032;-65
2021/10/09 12:48:52;;;;;;;9.00;8.23;;;44.90;30.00;;;;;;5012672;28;20129;-66
2021/10/09 12:51:17;;;;;;;9.65;8.82;;;44.90;30.10;;;;;;5011621;28;20117;-66
2021/10/09 12:53:43;;;;;;;9.60;8.60;;;45.00;30.30;;;;;;5024712;28;20384;-66
2021/10/09 12:56:09;;;;;;;9.50;8.70;;;45.20;30.30;;;;;;5027967;28;20026;-66
2021/10/09 12:58:35;;;;;;;10.60;9.63;;;45.10;30.10;;;;;;5028531;28;20104;-66
2021/10/09 13:01:01;;;;;;;10.33;9.33;;;45.20;29.90;;;;;;5031175;28;20026;-66
2021/10/09 13:03:26;;;;;;;10.23;9.32;;;45.00;30.00;;;;;;5030526;28;20035;-66
2021/10/09 13:05:52;;;;;;;9.23;8.48;;;44.80;30.00;;;;;;5030636;28;20045;-66
2021/10/09 13:08:17;;;;;;;9.73;8.93;;;44.90;30.00;;;;;;5025181;28;20409;-66
2021/10/09 13:10:47;;;;;;;10.57;9.68;;;44.80;30.00;;;;;;5030590;28;20021;-66
2021/10/09 13:13:13;;;;;;;9.07;8.23;;;44.50;30.10;;;;;;5029260;28;20528;-66
2021/10/09 13:15:38;;;;;;;10.77;9.77;;;44.10;30.70;;;;;;5035330;28;20068;-66
2021/10/09 13:18:04;;;;;;;10.15;9.35;;;43.90;30.60;;;;;;5035181;28;20056;-66
2021/10/09 13:20:32;;;;;;;9.68;8.80;;;43.90;30.70;;;;;;5034618;28;20033;-66
2021/10/09 13:22:58;;;;;;;9.15;8.35;;;43.90;30.70;;;;;;5036112;28;20104;-66
2021/10/09 13:25:24;;;;;;;8.95;8.05;;;44.00;30.80;;;;;;5036120;28;20057;-66
2021/10/09 13:27:49;;;;;;;10.55;9.55;;;44.00;30.90;;;;;;5036107;28;20100;-66
2021/10/09 13:30:15;;;;;;;10.60;9.50;;;43.60;30.80;;;;;;5035962;28;20040;-66
2021/10/09 13:32:40;;;;;;;9.50;8.57;;;43.40;30.90;;;;;;5035371;28;20076;-65
2021/10/09 13:35:06;;;;;;;10.48;9.48;;;43.60;31.00;;;;;;5035223;28;20117;-66
2021/10/09 13:37:36;;;;;;;10.45;9.45;;;43.20;30.90;;;;;;5017604;28;20038;-66
2021/10/09 13:40:02;;;;;;;9.88;8.98;;;42.90;31.10;;;;;;5015811;28;20032;-66
2021/10/09 13:42:28;;;;;;;9.32;8.43;;;42.90;31.20;;;;;;5015832;28;20025;-66
2021/10/09 13:44:53;;;;;;;11.35;10.10;;;42.90;31.30;;;;;;5016085;28;20061;-65
2021/10/09 13:47:19;;;;;;;10.07;9.10;;;42.90;31.10;;;;;;5015838;28;20030;-65
2021/10/09 13:49:44;;;;;;;10.38;9.32;;;42.70;31.20;;;;;;5014377;28;20115;-65
2021/10/09 13:52:10;;;;;;;9.25;8.45;;;42.50;31.30;;;;;;5015277;28;20057;-65
2021/10/09 13:54:35;;;;;;;9.38;8.50;;;42.40;31.50;;;;;;5033500;28;20038;-65
2021/10/09 13:57:01;;;;;;;10.55;9.48;;;42.40;31.60;;;;;;5035500;28;20038;-66
2021/10/09 13:59:26;;;;;;;10.00;9.00;;;42.30;31.50;;;;;;5035295;28;20022;-66
2021/10/09 14:02:16;;;;;;;10.30;9.32;;;41.90;31.70;;;;;;5035303;28;20428;-66
2021/10/09 14:05:35;;;;;;;9.55;8.70;;;41.80;31.60;;;;;;5018100;28;20120;-66
2021/10/09 14:08:02;;;;;;;9.18;8.20;;;41.60;32.00;;;;;;5000527;28;21534;-65
2021/10/09 14:10:28;;;;;;;9.35;8.32;;;41.50;32.30;;;;;;5033071;28;20026;-66
2021/10/09 14:13:26;;;;;;;;;;;;;;;;;;;;;
2021/10/09 14:15:52;;;;;;;9.48;8.63;;;41.20;32.20;;;;;;5035293;28;20391;-65
2021/10/09 14:18:20;;;;;;;9.68;8.70;;;41.00;32.40;;;;;;5035030;28;20101;-65
2021/10/09 14:20:51;;;;;;;9.18;8.27;;;40.90;32.50;;;;;;5034688;28;20548;-65
2021/10/09 14:23:17;;;;;;;10.40;9.40;;;40.70;32.60;;;;;;5034842;28;20037;-65
2021/10/09 14:25:43;;;;;;;9.98;9.07;;;40.50;31.90;;;;;;5034742;28;20024;-66
2021/10/09 14:28:09;;;;;;;10.52;9.52;;;40.30;32.20;;;;;;5034698;28;20079;-65
2021/10/09 14:30:36;;;;;;;9.40;8.50;;;40.10;32.00;;;;;;5034570;28;20048;-66
2021/10/09 14:33:02;;;;;;;9.27;8.35;;;39.80;32.30;;;;;;5034689;28;20029;-66
2021/10/09 14:36:04;;;;;;;9.15;8.27;;;39.50;32.70;;;;;;5032399;28;20078;-66
2021/10/09 14:38:30;;;;;;;10.00;9.10;;;39.30;32.90;;;;;;5032559;28;20525;-66
2021/10/09 14:40:55;;;;;;;9.73;8.65;;;39.00;33.20;;;;;;5032447;28;20101;-66
2021/10/09 14:43:21;;;;;;;9.57;8.68;;;38.90;33.20;;;;;;5031875;28;20068;-65
2021/10/09 14:45:46;;;;;;;9.20;8.30;;;38.80;33.50;;;;;;5032208;28;20013;-65
2021/10/09 15:02:10;;;;;;;7.45;6.75;;;37.30;35.00;;;;;;5026003;28;20555;-65
2021/10/09 15:18:27;;;;;;;8.60;7.10;;;35.30;35.90;;;;;;5033380;28;20032;-65
2021/10/09 15:20:54;;;;;;;8.38;7.15;;;34.90;36.20;;;;;;5033881;28;20037;-65
2021/10/09 15:23:20;;;;;;;8.43;7.55;;;34.50;36.40;;;;;;5033282;28;20459;-65
2021/10/09 15:25:46;;;;;;;8.52;7.45;;;34.10;36.60;;;;;;5034157;28;20024;-65
2021/10/09 15:28:13;;;;;;;7.97;7.22;;;33.70;37.00;;;;;;5033604;28;20029;-65
2021/10/09 15:30:39;;;;;;;9.68;8.15;;;33.30;37.20;;;;;;5032242;28;20029;-65